首页
METAR-TAF:

METAR-TAF

机场 :

馬丁尼克-亞米-凱薩國際機場

法兰西堡, 馬提尼克

纬度: 14-36N, 经度: 061-00W, 海拔: 5米

当前天气观测

该预报发布于19分钟前的18:30 UTC
风速16节,风向东转东南,在东转东北东南之间变化
温度 29°C
湿度 62%
气压 1015 hPa
能见度10公里或以上
少量云层高于3000英尺
散云层高于3800英尺

METAR: TFFF 181830Z AUTO 11016KT 070V130 9999 FEW030 SCT038 29/21 Q1015 TEMPO 10020G30KT

时间: 14:49 (18:49 UTC)

预报

该预报发布于1小时和49分钟前的17:00 UTC
预报有效从18日的 18点(UTC)到 19日的 18点(UTC)
风速12节,风向
能见度10公里或以上
散云层高于3000英尺
短暂存在
从 18日的 18点(UTC)到 18日的 21点(UTC)
风速20节,风向,有时为30节阵风
短暂存在
从 19日的 06点(UTC)到 19日的 18点(UTC)
能見度: 3000
散云层高于1800英尺, 塔状积云.
阵雨
短暂存在
从 19日的 15点(UTC)到 19日的 18点(UTC)
风速20节,风向,有时为30节阵风

TAF: TFFF 181700Z 1818/1918 10012KT 9999 SCT030 TEMPO 1818/1821 10020G30KT TEMPO 1906/1918 3000 SHRA SCT018TCU TEMPO 1915/1918 09020G30KT

超过4000个机场的气象观测和天气预报(METAR&TAF报告)。

可查询的气象台以黄色和红色小点在地图上表示。

将鼠标移到小点上方,可查看气象台名称。

然后点击查看天气观测和预报。

如需切换地图:点击带黑十字的绿色按钮放大地图;点击带横线的绿色按钮缩小地图;或者点击绿色箭头查看邻近地区的地图。


METAR-TAF: